createdAt,value
2018-05-18T00:02:44.389Z,13.37
2018-05-18T00:07:46.403Z,9.10
2018-05-18T00:12:47.725Z,10.20
2018-05-18T00:17:49.492Z,11.90
2018-05-18T00:22:51.606Z,11.93
2018-05-18T00:27:53.645Z,11.60
2018-05-18T00:32:55.116Z,8.27
2018-05-18T00:37:56.504Z,17.93
2018-05-18T00:42:57.819Z,13.43
2018-05-18T00:47:59.130Z,15.30
2018-05-18T00:53:01.243Z,16.73
2018-05-18T00:58:02.611Z,13.20
2018-05-18T01:03:03.943Z,18.73
2018-05-18T01:08:06.079Z,14.73
2018-05-18T01:13:07.311Z,14.53
2018-05-18T01:18:08.619Z,12.70
2018-05-18T01:23:09.954Z,14.93
2018-05-18T01:28:11.258Z,17.50
2018-05-18T01:33:12.633Z,16.27
2018-05-18T01:38:14.722Z,12.40
2018-05-18T01:43:16.806Z,15.47
2018-05-18T01:48:18.829Z,12.23
2018-05-18T01:53:20.074Z,15.33
2018-05-18T01:58:21.357Z,13.70
2018-05-18T02:03:22.601Z,14.63
2018-05-18T02:08:23.899Z,21.77
2018-05-18T02:13:25.236Z,22.90
2018-05-18T02:18:26.479Z,22.93
2018-05-18T02:23:27.788Z,20.40
2018-05-18T02:28:29.116Z,23.30
2018-05-18T02:33:30.354Z,14.43
2018-05-18T02:38:31.652Z,17.53
2018-05-18T02:43:32.978Z,24.17
2018-05-18T02:48:34.275Z,22.63
2018-05-18T02:53:35.543Z,23.37
2018-05-18T02:58:36.761Z,16.03
2018-05-18T03:03:38.090Z,22.07
2018-05-18T03:08:40.135Z,15.90
2018-05-18T03:13:41.396Z,22.57
2018-05-18T03:18:42.722Z,21.63
2018-05-18T03:23:44.055Z,24.27
2018-05-18T03:28:45.387Z,19.97
2018-05-18T03:33:46.664Z,23.47
2018-05-18T03:38:47.866Z,22.87
2018-05-18T03:43:49.997Z,17.70
2018-05-18T03:48:52.010Z,26.57
2018-05-18T03:53:53.357Z,18.30
2018-05-18T03:58:55.425Z,25.50
2018-05-18T04:04:09.117Z,26.97
2018-05-18T04:09:10.428Z,25.03
2018-05-18T04:14:11.674Z,24.57
2018-05-18T04:19:12.942Z,21.43
2018-05-18T04:24:15.288Z,29.00
2018-05-18T04:29:16.627Z,23.00
2018-05-18T04:34:17.989Z,25.40
2018-05-18T04:39:19.995Z,30.03
2018-05-18T04:44:21.332Z,25.27
2018-05-18T04:49:23.375Z,25.67
2018-05-18T04:54:24.665Z,31.43
2018-05-18T04:59:26.068Z,27.20
2018-05-18T05:04:27.374Z,30.30
2018-05-18T05:09:28.615Z,31.17
2018-05-18T05:14:30.718Z,29.33
2018-05-18T05:19:32.049Z,26.00
2018-05-18T05:24:33.335Z,30.20
2018-05-18T05:29:34.676Z,30.43
2018-05-18T05:34:35.979Z,34.17
2018-05-18T05:39:37.311Z,35.20
2018-05-18T05:44:38.578Z,28.13
2018-05-18T05:49:39.808Z,28.40
2018-05-18T05:54:41.096Z,35.60
2018-05-18T05:59:42.511Z,32.43
2018-05-18T06:04:44.524Z,27.80
2018-05-18T06:09:45.791Z,29.27
2018-05-18T06:14:47.058Z,32.63
2018-05-18T06:19:48.296Z,32.73
2018-05-18T06:24:49.565Z,32.33
2018-05-18T06:29:50.862Z,31.93
2018-05-18T06:34:52.226Z,33.57
2018-05-18T06:39:54.183Z,32.03
2018-05-18T06:44:55.462Z,35.77
2018-05-18T06:49:56.798Z,32.20
2018-05-18T06:54:58.056Z,47.47
2018-05-18T06:59:59.308Z,38.33
2018-05-18T07:05:00.549Z,63.40
2018-05-18T07:10:01.867Z,52.63
2018-05-18T07:15:03.114Z,52.07
2018-05-18T07:20:04.367Z,45.00
2018-05-18T07:25:05.622Z,43.63
2018-05-18T07:30:06.874Z,47.07
2018-05-18T07:35:08.141Z,62.53
2018-05-18T07:40:09.405Z,48.27
2018-05-18T07:45:10.688Z,46.40
2018-05-18T07:50:12.019Z,39.07
2018-05-18T07:55:13.204Z,45.07
2018-05-18T08:00:14.483Z,46.93
2018-05-18T08:05:15.866Z,47.97
2018-05-18T08:10:17.994Z,45.17
2018-05-18T08:15:19.309Z,53.07
2018-05-18T08:20:21.384Z,52.10
2018-05-18T08:25:22.713Z,51.30
2018-05-18T08:30:23.974Z,43.63
2018-05-18T08:35:25.327Z,41.80
2018-05-18T08:40:26.620Z,41.97
2018-05-18T08:45:27.962Z,36.10
2018-05-18T08:50:30.022Z,47.13
2018-05-18T08:55:31.321Z,43.77
2018-05-18T09:00:32.767Z,32.13
2018-05-18T09:05:34.024Z,43.13
2018-05-18T09:10:35.308Z,41.63
2018-05-18T09:15:36.664Z,45.60
2018-05-18T09:20:38.003Z,51.47
2018-05-18T09:25:39.264Z,42.67
2018-05-18T09:30:40.526Z,45.97
2018-05-18T09:35:41.763Z,44.53
2018-05-18T09:40:43.038Z,57.90
2018-05-18T09:45:44.355Z,45.57
2018-05-18T09:50:46.389Z,49.63
2018-05-18T09:55:47.729Z,50.27
2018-05-18T10:00:49.120Z,48.73
2018-05-18T10:05:50.376Z,43.20
2018-05-18T10:10:51.630Z,49.47
2018-05-18T10:15:52.954Z,46.37
2018-05-18T10:20:54.391Z,51.90
2018-05-18T10:25:55.757Z,48.17
2018-05-18T10:30:57.243Z,56.13
2018-05-18T10:35:59.196Z,59.03
2018-05-18T10:41:00.758Z,60.30
2018-05-18T10:46:02.873Z,68.07
2018-05-18T10:51:04.946Z,77.47
2018-05-18T10:56:07.010Z,73.93
2018-05-18T11:01:08.343Z,69.53
2018-05-18T11:06:09.592Z,72.47
2018-05-18T11:11:10.847Z,66.87
2018-05-18T11:16:12.094Z,62.97
2018-05-18T11:21:13.348Z,63.37
2018-05-18T11:26:14.732Z,54.20
2018-05-18T11:31:16.022Z,56.83
2018-05-18T11:36:17.270Z,51.83
2018-05-18T11:41:18.515Z,51.57
2018-05-18T11:46:19.807Z,56.87
2018-05-18T11:51:21.074Z,48.93
2018-05-18T11:56:22.403Z,48.53
2018-05-18T12:01:23.704Z,51.37
2018-05-18T12:06:25.045Z,47.50
2018-05-18T12:11:26.354Z,50.23
2018-05-18T12:16:27.683Z,44.10
2018-05-18T12:21:29.067Z,49.73
2018-05-18T12:26:30.404Z,44.50
2018-05-18T12:31:31.779Z,47.33
2018-05-18T12:36:33.129Z,48.37
2018-05-18T12:41:34.552Z,47.40
2018-05-18T12:46:35.825Z,45.00
2018-05-18T12:51:37.108Z,50.27
2018-05-18T12:56:38.374Z,39.80
2018-05-18T13:01:39.685Z,41.13
2018-05-18T13:06:41.014Z,40.13
2018-05-18T13:11:42.378Z,44.07
2018-05-18T13:16:43.720Z,38.97
2018-05-18T13:21:45.078Z,35.50
2018-05-18T13:26:46.362Z,37.60
2018-05-18T13:31:47.640Z,33.87
2018-05-18T13:36:49.004Z,32.23
2018-05-18T13:41:51.055Z,29.63
2018-05-18T13:46:52.332Z,30.37
2018-05-18T13:51:53.621Z,24.33
2018-05-18T13:56:54.948Z,26.80
2018-05-18T14:01:56.369Z,24.83
2018-05-18T14:06:57.683Z,24.73
2018-05-18T14:11:59.006Z,23.37
2018-05-18T14:17:00.293Z,25.33
2018-05-18T14:22:01.542Z,25.17
2018-05-18T14:27:02.853Z,22.20
2018-05-18T14:32:04.999Z,25.50
2018-05-18T14:37:06.258Z,22.10
2018-05-18T14:42:07.541Z,22.93
2018-05-18T14:47:08.920Z,23.83
2018-05-18T17:47:13.709Z,23.67
2018-05-18T17:52:22.272Z,25.20
2018-05-18T17:57:23.906Z,24.50
2018-05-18T18:07:54.612Z,23.67
2018-05-18T18:12:56.653Z,30.20
2018-05-18T18:18:00.409Z,25.40
2018-05-18T18:23:04.613Z,24.07
2018-05-18T18:28:10.239Z,23.10
2018-05-18T18:33:12.572Z,26.60
2018-05-18T18:38:20.022Z,22.77
2018-05-18T18:43:24.723Z,23.60
2018-05-18T18:48:29.090Z,23.90
2018-05-18T18:53:33.473Z,22.30
2018-05-18T18:58:39.932Z,24.47
2018-05-18T19:03:41.979Z,24.53
2018-05-18T19:08:47.032Z,25.93
2018-05-18T19:13:52.164Z,21.10
2018-05-18T19:18:55.315Z,23.27
2018-05-18T19:23:59.280Z,23.63
2018-05-18T19:29:02.506Z,22.13
2018-05-18T19:34:04.073Z,23.20
2018-05-18T19:39:07.743Z,25.03
2018-05-18T19:44:10.868Z,23.73
2018-05-18T19:49:12.219Z,20.87
2018-05-18T19:54:16.302Z,20.30
2018-05-18T19:59:20.120Z,22.07
2018-05-18T20:04:25.101Z,26.00
2018-05-18T20:09:30.845Z,23.43
2018-05-18T20:14:32.351Z,28.27
2018-05-18T20:19:33.621Z,24.37
2018-05-18T20:24:34.975Z,19.27
2018-05-18T20:29:36.260Z,20.53
2018-05-18T20:34:40.398Z,18.87
2018-05-18T20:39:41.909Z,19.37
2018-05-18T20:44:44.077Z,22.23
2018-05-18T20:49:45.459Z,20.60
2018-05-18T20:54:46.737Z,20.67
2018-05-18T20:59:47.998Z,21.60
2018-05-18T21:04:49.282Z,23.83
2018-05-18T21:09:50.559Z,20.77
2018-05-18T21:14:51.788Z,22.93
2018-05-18T21:19:53.042Z,15.77
2018-05-18T21:24:54.334Z,16.80
2018-05-18T21:29:55.636Z,19.83
2018-05-18T21:34:57.026Z,21.27
2018-05-18T21:39:58.340Z,17.23
2018-05-18T21:44:59.677Z,20.70
2018-05-18T21:50:01.179Z,18.77
2018-05-18T21:55:02.688Z,16.20
2018-05-18T22:00:04.874Z,15.80
2018-05-18T22:05:06.175Z,17.97
2018-05-18T22:10:07.568Z,20.13
2018-05-18T22:15:09.633Z,14.87
2018-05-18T22:20:11.654Z,18.03
2018-05-18T22:25:13.017Z,15.80
2018-05-18T22:30:14.317Z,18.37
2018-05-18T22:35:15.785Z,14.40
2018-05-18T22:40:18.327Z,13.40
2018-05-18T22:45:19.611Z,16.73
2018-05-18T22:50:22.997Z,15.73
2018-05-18T22:55:24.395Z,15.80
2018-05-18T23:00:26.278Z,17.40
2018-05-18T23:05:27.719Z,13.23
2018-05-18T23:10:29.109Z,16.57
2018-05-18T23:15:30.386Z,16.00
2018-05-18T23:20:32.430Z,13.27
2018-05-18T23:25:33.702Z,15.70
2018-05-18T23:30:35.142Z,14.17
2018-05-18T23:35:36.441Z,16.93
2018-05-18T23:40:37.757Z,15.00
2018-05-18T23:45:39.030Z,14.27
2018-05-18T23:50:40.506Z,12.83
2018-05-18T23:55:42.556Z,16.80
